Time;durP1;ratioP1;P1;durP2;ratioP2;P2;SDS_P1;SDS_P2;PMS_P1;PMS_P2;Temp;Humidity;BMP_temperature;BMP_pressure;BME280_temperature;BME280_humidity;BME280_pressure;Samples;Min_cycle;Max_cycle;Signal;HPM_P1;HPM_P2
2023/12/13 00:01:58;;;;;;;15.88;2.92;;;;;;;12.45;93.18;99410.75;5073185;28;20063;-59
2023/12/13 00:04:25;;;;;;;17.73;3.30;;;;;;;12.39;93.41;99404.72;5064047;28;20049;-59
2023/12/13 00:06:53;;;;;;;18.65;3.47;;;;;;;12.48;92.94;99409.25;5068077;28;20040;-61
2023/12/13 00:09:20;;;;;;;23.63;3.78;;;;;;;12.38;92.91;99408.63;5091430;28;20052;-61
2023/12/13 00:11:47;;;;;;;17.40;3.42;;;;;;;12.39;92.80;99406.69;5068093;28;20103;-61
2023/12/13 00:14:14;;;;;;;17.90;3.42;;;;;;;12.60;92.94;99398.91;5076343;28;20059;-58
2023/12/13 00:16:41;;;;;;;16.17;3.05;;;;;;;12.51;92.32;99403.81;5114316;28;20050;-61
2023/12/13 00:19:09;;;;;;;22.00;3.67;;;;;;;12.53;92.59;99393.22;5123775;27;20051;-60
2023/12/13 00:21:36;;;;;;;17.98;3.47;;;;;;;12.51;92.89;99394.72;5096774;27;20048;-62
2023/12/13 00:24:04;;;;;;;15.30;3.30;;;;;;;12.58;92.33;99392.94;5076537;28;20063;-63
2023/12/13 00:26:31;;;;;;;17.20;3.65;;;;;;;12.77;91.94;99381.94;5106105;28;20070;-59
2023/12/13 00:28:58;;;;;;;25.45;4.28;;;;;;;12.73;91.03;99383.81;5096455;28;20142;-59
2023/12/13 00:31:26;;;;;;;19.63;2.90;;;;;;;12.61;90.87;99380.34;5114639;28;20411;-58
2023/12/13 00:33:53;;;;;;;17.63;2.97;;;;;;;12.46;91.10;99379.25;5114844;28;20589;-59
2023/12/13 00:36:20;;;;;;;19.23;3.20;;;;;;;12.40;91.31;99386.19;5114166;28;20058;-59
2023/12/13 00:38:48;;;;;;;20.15;3.00;;;;;;;12.33;91.42;99383.25;5076025;28;20051;-60
2023/12/13 00:41:16;;;;;;;23.05;3.60;;;;;;;12.30;91.69;99382.03;5076097;28;20062;-61
2023/12/13 00:43:43;;;;;;;21.38;3.85;;;;;;;12.31;92.01;99378.09;5076104;28;20051;-59
2023/12/13 00:46:19;;;;;;;20.58;3.40;;;;;;;12.22;92.34;99374.69;5093554;28;20079;-62
2023/12/13 00:48:49;;;;;;;16.38;3.22;;;;;;;12.31;92.55;99375.31;5093290;28;20571;-59
2023/12/13 00:51:21;;;;;;;21.83;3.15;;;;;;;12.26;92.42;99372.03;5114747;28;20040;-59
2023/12/13 00:53:48;;;;;;;17.88;3.13;;;;;;;12.12;92.78;99372.47;5114691;28;20055;-60
2023/12/13 00:56:16;;;;;;;24.85;3.80;;;;;;;12.14;93.24;99367.41;5096095;28;20043;-61
2023/12/13 00:58:45;;;;;;;16.88;3.10;;;;;;;12.36;92.18;99363.22;5114189;28;20043;-59
2023/12/13 01:01:13;;;;;;;26.73;3.67;;;;;;;12.36;91.48;99364.00;5114391;28;20410;-59
2023/12/13 01:03:40;;;;;;;18.27;3.55;;;;;;;12.17;91.52;99352.88;5079308;28;20055;-62
2023/12/13 01:06:10;;;;;;;22.10;3.75;;;;;;;12.09;92.59;99361.34;5108157;28;20387;-58
2023/12/13 01:08:38;;;;;;;26.58;3.63;;;;;;;12.02;92.88;99358.41;5110293;28;20070;-62
2023/12/13 01:11:09;;;;;;;17.50;3.45;;;;;;;11.94;93.68;99359.41;5113502;28;20048;-59
2023/12/13 01:13:37;;;;;;;16.30;2.63;;;;;;;11.91;93.49;99358.13;5076961;28;20043;-59
2023/12/13 01:16:05;;;;;;;22.23;3.50;;;;;;;12.04;93.06;99354.16;5092413;28;20047;-60
2023/12/13 01:18:32;;;;;;;21.80;3.13;;;;;;;12.19;92.52;99361.63;5113623;28;20043;-60
2023/12/13 01:21:00;;;;;;;20.15;3.60;;;;;;;12.03;92.78;99357.28;5095489;28;20047;-60
2023/12/13 01:23:27;;;;;;;14.65;2.83;;;;;;;12.10;92.69;99360.22;5113432;28;20047;-60
2023/12/13 01:25:55;;;;;;;20.83;3.42;;;;;;;12.09;92.28;99358.59;5104230;28;20055;-59
2023/12/13 01:28:22;;;;;;;20.33;3.42;;;;;;;11.89;92.78;99354.16;5113654;28;20043;-60
2023/12/13 01:30:49;;;;;;;18.58;2.95;;;;;;;12.09;92.75;99348.38;5078351;28;20059;-60
2023/12/13 01:33:17;;;;;;;20.95;3.08;;;;;;;12.05;92.12;99363.22;5113233;28;20059;-61
2023/12/13 01:35:44;;;;;;;21.08;3.20;;;;;;;12.12;91.65;99349.59;5095401;28;20050;-60
2023/12/13 01:38:11;;;;;;;23.50;4.22;;;;;;;12.00;91.71;99360.72;5113272;28;20051;-60
2023/12/13 01:40:48;;;;;;;22.83;3.28;;;;;;;12.03;91.36;99354.50;5094876;28;20056;-59
2023/12/13 01:43:35;;;;;;;19.15;3.72;;;;;;;12.13;90.85;99360.28;5077930;28;20075;-59
2023/12/13 01:46:03;;;;;;;22.95;3.88;;;;;;;11.87;90.97;99360.00;5092656;28;20051;-59
2023/12/13 01:48:30;;;;;;;21.02;3.50;;;;;;;11.73;91.77;99359.66;5089260;28;20047;-61
2023/12/13 01:50:58;;;;;;;19.90;3.40;;;;;;;11.79;92.09;99365.69;5113598;28;20467;-61
2023/12/13 01:53:26;;;;;;;25.42;2.97;;;;;;;11.85;92.00;99364.28;5094755;28;20066;-59
2023/12/13 01:55:54;;;;;;;23.70;3.60;;;;;;;11.88;91.50;99361.63;5113261;28;20044;-60
2023/12/13 01:58:22;;;;;;;16.73;3.10;;;;;;;11.84;91.63;99359.91;5094603;28;20059;-60
2023/12/13 02:00:50;;;;;;;18.50;2.80;;;;;;;11.91;91.12;99360.09;5094986;28;20073;-60
2023/12/13 02:03:19;;;;;;;20.70;3.55;;;;;;;12.03;91.06;99365.56;5113253;28;20058;-61
2023/12/13 02:05:48;;;;;;;14.05;2.78;;;;;;;12.09;90.01;99364.91;5075847;28;20063;-60
2023/12/13 02:08:15;;;;;;;21.38;3.10;;;;;;;11.59;91.56;99380.50;5089355;28;20382;-60
2023/12/13 02:10:43;;;;;;;25.35;3.40;;;;;;;11.53;92.58;99377.19;5112919;28;20043;-61
2023/12/13 02:13:12;;;;;;;23.80;3.00;;;;;;;11.69;92.75;99380.00;5112852;28;20043;-60
2023/12/13 02:15:39;;;;;;;15.60;2.83;;;;;;;11.56;93.08;99375.69;5093341;28;20059;-60
2023/12/13 02:18:06;;;;;;;17.67;3.17;;;;;;;11.64;92.83;99370.03;5075504;28;20086;-58
2023/12/13 02:20:34;;;;;;;26.70;3.90;;;;;;;11.69;92.50;99358.75;5113019;28;20117;-59
2023/12/13 02:23:01;;;;;;;17.73;2.97;;;;;;;11.59;92.45;99359.25;5113092;28;20062;-58
2023/12/13 02:25:52;;;;;;;18.00;3.60;;;;;;;11.68;92.53;99367.38;5088065;28;20056;-60
2023/12/13 02:28:21;;;;;;;15.25;2.72;;;;;;;11.69;92.08;99361.50;5096873;28;20055;-60
2023/12/13 02:30:50;;;;;;;24.08;4.22;;;;;;;11.64;92.27;99364.53;5096908;28;20055;-62
2023/12/13 02:33:18;;;;;;;28.75;4.22;;;;;;;11.63;92.34;99362.88;5086076;28;20062;-61
2023/12/13 02:35:45;;;;;;;22.88;2.78;;;;;;;11.66;92.07;99358.66;5116120;28;20052;-61
2023/12/13 02:38:13;;;;;;;18.05;2.83;;;;;;;11.57;92.66;99353.28;5117071;28;20047;-60
2023/12/13 02:40:40;;;;;;;15.52;2.70;;;;;;;11.60;92.48;99341.53;5098117;28;20062;-60
2023/12/13 02:43:07;;;;;;;18.65;3.00;;;;;;;11.55;92.68;99347.31;5116604;28;20077;-59
2023/12/13 02:45:35;;;;;;;19.88;3.90;;;;;;;11.43;92.84;99339.09;5116493;28;20059;-59
2023/12/13 02:48:02;;;;;;;23.27;3.60;;;;;;;11.37;93.35;99345.22;5116632;28;20040;-60
2023/12/13 02:50:29;;;;;;;19.23;3.30;;;;;;;11.42;92.99;99351.25;5116899;28;20055;-60
2023/12/13 02:52:56;;;;;;;17.55;2.45;;;;;;;11.45;92.71;99342.31;5117033;28;20056;-59
2023/12/13 02:55:24;;;;;;;18.17;2.70;;;;;;;11.49;92.57;99331.38;5098231;28;20051;-60
2023/12/13 02:57:51;;;;;;;13.05;2.78;;;;;;;11.41;92.76;99335.06;5116501;28;20055;-60
2023/12/13 03:00:18;;;;;;;16.67;3.00;;;;;;;11.34;92.85;99328.22;5098424;28;20055;-61
2023/12/13 03:02:45;;;;;;;22.85;3.25;;;;;;;11.47;92.40;99322.66;5081136;28;20498;-60
2023/12/13 03:05:13;;;;;;;15.98;2.88;;;;;;;11.48;91.61;99324.25;5098141;28;20063;-60
2023/12/13 03:07:40;;;;;;;17.00;2.40;;;;;;;11.52;91.41;99317.69;5108087;28;20048;-60
2023/12/13 03:10:08;;;;;;;17.15;2.70;;;;;;;11.28;91.98;99328.81;5116305;28;20048;-59
2023/12/13 03:12:35;;;;;;;27.95;3.50;;;;;;;11.30;92.15;99321.81;5095806;28;20054;-60
2023/12/13 03:15:03;;;;;;;18.33;2.60;;;;;;;11.24;92.63;99322.41;5115878;28;20043;-61
2023/12/13 03:17:30;;;;;;;15.73;2.58;;;;;;;11.25;92.60;99315.75;5113828;28;20043;-61
2023/12/13 03:19:58;;;;;;;25.30;3.88;;;;;;;11.29;92.75;99313.91;5076824;28;20044;-59
2023/12/13 03:22:25;;;;;;;20.10;3.20;;;;;;;11.23;92.63;99310.59;5095793;28;20534;-60
2023/12/13 03:24:52;;;;;;;20.33;3.22;;;;;;;11.16;93.14;99320.59;5099141;28;20074;-60
2023/12/13 03:27:19;;;;;;;23.88;3.58;;;;;;;11.18;92.79;99318.28;5112477;28;20047;-59
2023/12/13 03:29:46;;;;;;;14.43;2.42;;;;;;;11.33;92.43;99314.81;5115161;28;20048;-60
2023/12/13 03:32:15;;;;;;;18.92;2.75;;;;;;;11.13;92.74;99318.56;5114052;28;20075;-58
2023/12/13 03:34:42;;;;;;;21.02;2.92;;;;;;;11.24;92.60;99301.16;5107640;28;20059;-62
2023/12/13 03:37:10;;;;;;;14.23;2.85;;;;;;;11.30;92.20;99299.75;5094939;28;20056;-59
2023/12/13 03:39:37;;;;;;;18.17;2.80;;;;;;;11.20;92.98;99303.03;5086655;28;20046;-59
2023/12/13 03:42:04;;;;;;;24.08;3.95;;;;;;;11.29;92.91;99291.84;5114635;28;20147;-61
2023/12/13 03:44:31;;;;;;;21.88;3.30;;;;;;;11.27;92.49;99289.44;5097351;28;20047;-60
2023/12/13 03:46:59;;;;;;;18.50;2.47;;;;;;;11.15;92.60;99296.97;5114967;28;20047;-60
2023/12/13 03:49:26;;;;;;;20.90;4.03;;;;;;;11.07;93.29;99301.47;5115710;28;20121;-61
2023/12/13 03:51:53;;;;;;;14.13;2.75;;;;;;;11.10;93.81;99302.72;5115075;28;20048;-60
2023/12/13 03:54:20;;;;;;;16.17;2.83;;;;;;;11.20;93.80;99305.78;5115559;28;20570;-60
2023/12/13 03:56:48;;;;;;;25.40;3.75;;;;;;;11.10;93.42;99294.47;5115126;28;20047;-59
2023/12/13 03:59:15;;;;;;;23.88;3.80;;;;;;;11.14;93.48;99300.88;5115193;28;20028;-60
2023/12/13 04:01:43;;;;;;;13.93;2.67;;;;;;;10.99;94.18;99298.88;5114932;28;20059;-60
2023/12/13 04:04:10;;;;;;;18.90;3.42;;;;;;;11.09;94.35;99295.59;5083236;28;20071;-60
2023/12/13 04:06:37;;;;;;;25.20;3.08;;;;;;;11.07;94.11;99297.94;5113668;28;20058;-59
2023/12/13 04:09:04;;;;;;;13.90;3.35;;;;;;;11.05;94.37;99294.72;5075845;28;20507;-59
2023/12/13 04:11:32;;;;;;;22.33;3.72;;;;;;;10.93;95.37;99289.25;5106103;28;20048;-61
2023/12/13 04:13:59;;;;;;;19.88;3.65;;;;;;;11.02;95.07;99287.13;5115298;28;20059;-59
2023/12/13 04:16:26;;;;;;;19.52;2.83;;;;;;;10.97;94.62;99287.38;5092863;28;20044;-60
2023/12/13 04:18:53;;;;;;;18.35;3.20;;;;;;;10.90;95.57;99293.50;5076506;28;20052;-59
2023/12/13 04:21:21;;;;;;;19.38;3.13;;;;;;;10.89;95.47;99293.84;5075866;28;20070;-61
2023/12/13 04:23:48;;;;;;;20.65;3.33;;;;;;;11.02;95.17;99293.44;5093842;28;20511;-60
2023/12/13 04:26:15;;;;;;;17.80;3.00;;;;;;;10.92;95.40;99293.16;5099839;28;20062;-60
2023/12/13 04:28:42;;;;;;;15.80;2.58;;;;;;;11.07;95.06;99293.19;5114395;28;20044;-60
2023/12/13 04:31:10;;;;;;;16.02;2.70;;;;;;;11.13;94.13;99294.56;5114629;28;20506;-61
2023/12/13 04:33:37;;;;;;;23.27;3.90;;;;;;;11.22;93.64;99286.13;5103044;28;20055;-61
2023/12/13 04:36:04;;;;;;;18.98;3.17;;;;;;;11.09;93.99;99290.91;5093864;28;20043;-60
2023/12/13 04:38:33;;;;;;;22.35;3.67;;;;;;;11.07;94.15;99298.72;5095022;28;20043;-60
2023/12/13 04:41:01;;;;;;;24.87;3.57;;;;;;;11.08;94.38;99286.56;5079450;28;20054;-60
2023/12/13 04:43:28;;;;;;;21.20;3.75;;;;;;;11.06;94.25;99291.59;5082244;28;20056;-60
2023/12/13 04:45:55;;;;;;;25.35;3.45;;;;;;;11.05;94.19;99301.00;5094044;28;20085;-60
2023/12/13 04:48:23;;;;;;;20.77;3.10;;;;;;;11.05;94.67;99294.72;5106008;28;20069;-59
2023/12/13 04:50:50;;;;;;;23.30;3.72;;;;;;;11.12;94.14;99289.41;5113916;28;20040;-61
2023/12/13 04:53:17;;;;;;;23.63;3.00;;;;;;;11.00;93.99;99287.47;5095609;28;20127;-60
2023/12/13 04:55:45;;;;;;;19.00;3.25;;;;;;;11.16;93.76;99288.34;5114612;28;20058;-58
2023/12/13 04:58:12;;;;;;;17.10;2.88;;;;;;;11.21;93.16;99279.00;5113996;28;20048;-60
2023/12/13 05:00:39;;;;;;;18.73;3.28;;;;;;;11.20;93.14;99283.72;5102000;28;20655;-59
2023/12/13 05:03:07;;;;;;;20.67;3.15;;;;;;;11.08;92.80;99289.31;5093422;28;20569;-60
2023/12/13 05:05:35;;;;;;;20.88;3.10;;;;;;;11.04;93.51;99288.41;5110035;28;20036;-60
2023/12/13 05:08:04;;;;;;;18.83;3.15;;;;;;;11.12;93.57;99267.34;5111662;28;20398;-60
2023/12/13 05:10:31;;;;;;;16.30;3.00;;;;;;;10.94;93.61;99279.81;5095489;28;20052;-61
2023/12/13 05:12:58;;;;;;;16.05;2.47;;;;;;;11.04;93.31;99274.63;5087781;28;20421;-59
2023/12/13 05:15:26;;;;;;;15.25;2.50;;;;;;;11.10;93.76;99277.94;5095429;28;20055;-61
2023/12/13 05:17:53;;;;;;;16.35;2.70;;;;;;;11.05;93.19;99270.69;5088591;28;20056;-61
2023/12/13 05:20:20;;;;;;;17.80;3.10;;;;;;;11.02;93.35;99278.88;5082054;28;20044;-62
2023/12/13 05:22:47;;;;;;;23.85;3.42;;;;;;;11.09;93.26;99270.78;5094659;28;20421;-60
2023/12/13 05:25:15;;;;;;;25.10;4.03;;;;;;;10.98;93.14;99270.50;5094243;28;20102;-60
2023/12/13 05:27:44;;;;;;;19.35;3.20;;;;;;;10.96;93.42;99274.78;5112616;28;20048;-60
2023/12/13 05:30:11;;;;;;;14.25;2.67;;;;;;;11.04;93.21;99260.84;5095142;28;20048;-60
2023/12/13 05:32:39;;;;;;;26.45;4.43;;;;;;;10.99;93.10;99272.13;5095154;28;20059;-60
2023/12/13 05:35:07;;;;;;;25.63;4.00;;;;;;;10.96;93.49;99269.25;5094370;28;20067;-59
2023/12/13 05:37:34;;;;;;;17.33;3.30;;;;;;;11.09;92.64;99270.78;5095005;28;20051;-60
2023/12/13 05:40:03;;;;;;;20.30;2.75;;;;;;;10.91;93.31;99264.00;5082101;28;20066;-60
2023/12/13 05:42:32;;;;;;;15.85;3.53;;;;;;;10.83;93.43;99256.69;5074806;28;20044;-60
2023/12/13 05:44:59;;;;;;;21.20;3.00;;;;;;;10.92;93.95;99263.66;5070603;28;20051;-60
2023/12/13 05:47:27;;;;;;;12.00;2.38;;;;;;;10.90;92.95;99265.97;5077889;28;20043;-59
2023/12/13 05:49:55;;;;;;;18.35;3.15;;;;;;;10.81;93.57;99259.78;5088932;28;20048;-59
2023/12/13 05:52:22;;;;;;;16.85;2.90;;;;;;;10.87;93.92;99266.66;5092844;28;20048;-60
2023/12/13 05:54:49;;;;;;;19.40;3.20;;;;;;;10.77;93.97;99263.59;5097208;28;20457;-61
2023/12/13 05:57:17;;;;;;;16.88;2.30;;;;;;;10.87;93.83;99255.66;5112869;28;20052;-60
2023/12/13 05:59:44;;;;;;;21.35;3.38;;;;;;;10.95;93.17;99243.66;5108745;28;20047;-61
2023/12/13 06:02:11;;;;;;;20.63;3.55;;;;;;;10.94;92.83;99244.00;5092643;28;20048;-61
2023/12/13 06:04:40;;;;;;;18.05;2.85;;;;;;;10.90;92.77;99252.19;5109592;28;20051;-61
2023/12/13 06:07:09;;;;;;;20.40;2.95;;;;;;;10.86;93.45;99247.75;5092705;28;20048;-63
2023/12/13 06:09:36;;;;;;;18.98;3.10;;;;;;;10.85;93.43;99252.44;5112223;28;20043;-61
2023/12/13 06:12:04;;;;;;;15.82;3.13;;;;;;;11.19;92.48;99234.47;5112863;28;20062;-61
2023/12/13 06:14:31;;;;;;;24.23;3.60;;;;;;;11.17;91.60;99245.88;5111821;28;20058;-62
2023/12/13 06:16:58;;;;;;;19.98;2.95;;;;;;;11.09;91.49;99246.81;5098588;28;20040;-59
2023/12/13 06:19:29;;;;;;;20.15;2.75;;;;;;;11.05;91.34;99247.88;5073518;28;20044;-62
2023/12/13 06:21:56;;;;;;;24.65;4.03;;;;;;;11.00;91.65;99251.66;5088193;28;20564;-61
2023/12/13 06:24:24;;;;;;;20.25;2.85;;;;;;;10.86;91.81;99265.03;5092608;28;20055;-60
2023/12/13 06:26:51;;;;;;;19.50;3.15;;;;;;;10.94;92.16;99261.34;5092381;28;20063;-60
2023/12/13 06:29:18;;;;;;;16.67;2.78;;;;;;;10.80;92.19;99257.38;5092265;28;20369;-59
2023/12/13 06:31:45;;;;;;;16.25;2.80;;;;;;;10.70;92.62;99258.69;5074179;28;20055;-60
2023/12/13 06:34:13;;;;;;;22.75;3.10;;;;;;;10.63;93.30;99253.00;5092513;28;20059;-59
2023/12/13 06:36:40;;;;;;;19.30;2.88;;;;;;;10.61;93.66;99263.53;5074569;28;20463;-62
2023/12/13 06:39:11;;;;;;;15.77;3.47;;;;;;;10.66;93.63;99254.22;5097808;28;20074;-60
2023/12/13 06:41:39;;;;;;;19.90;3.13;;;;;;;10.76;93.66;99260.03;5095295;28;20059;-60
2023/12/13 06:44:07;;;;;;;21.20;3.38;;;;;;;10.65;93.14;99260.91;5112751;28;20055;-59
2023/12/13 06:46:34;;;;;;;24.77;3.85;;;;;;;10.80;93.10;99265.66;5112847;28;20054;-60
2023/12/13 06:49:01;;;;;;;17.35;3.40;;;;;;;10.81;92.25;99273.56;5112232;28;20252;-60
2023/12/13 06:51:29;;;;;;;24.92;3.63;;;;;;;10.96;91.89;99270.06;5112680;28;20047;-61
2023/12/13 06:53:56;;;;;;;19.05;3.35;;;;;;;10.81;92.10;99273.56;5096561;28;20435;-60
2023/12/13 06:56:26;;;;;;;20.10;3.28;;;;;;;10.60;93.23;99270.19;5112647;28;20055;-61
2023/12/13 06:58:53;;;;;;;17.48;3.70;;;;;;;10.55;92.57;99266.91;5111985;28;20055;-61
2023/12/13 07:01:22;;;;;;;19.55;3.45;;;;;;;10.60;93.37;99263.91;5090242;28;20052;-59
2023/12/13 07:03:49;;;;;;;21.85;4.00;;;;;;;10.47;93.13;99267.81;5097820;28;20054;-60
2023/12/13 07:06:18;;;;;;;20.80;3.50;;;;;;;10.58;93.58;99271.69;5112358;28;20055;-59
2023/12/13 07:08:45;;;;;;;19.30;3.90;;;;;;;10.41;93.44;99267.25;5092446;28;20060;-60
2023/12/13 07:11:12;;;;;;;21.63;3.83;;;;;;;10.71;93.26;99267.75;5075992;28;20487;-60
2023/12/13 07:13:40;;;;;;;16.15;2.90;;;;;;;10.64;92.56;99268.34;5106304;28;20619;-61
2023/12/13 07:16:08;;;;;;;18.65;3.30;;;;;;;10.73;92.53;99268.19;5082154;28;20063;-60
2023/12/13 07:18:35;;;;;;;20.58;3.65;;;;;;;10.84;92.43;99272.88;5095932;28;20041;-61
2023/12/13 07:21:03;;;;;;;16.27;3.70;;;;;;;10.88;91.62;99275.75;5101375;28;20035;-60
2023/12/13 07:23:31;;;;;;;20.83;3.00;;;;;;;10.82;91.67;99277.13;5116237;28;20051;-60
2023/12/13 07:25:59;;;;;;;18.98;3.58;;;;;;;10.59;92.04;99279.59;5080049;28;20070;-60
2023/12/13 07:28:26;;;;;;;15.45;3.17;;;;;;;10.64;92.43;99276.59;5115841;28;20059;-59
2023/12/13 07:30:55;;;;;;;19.95;3.35;;;;;;;10.67;92.98;99284.16;5115528;28;20047;-61
2023/12/13 07:33:38;;;;;;;18.50;3.17;;;;;;;10.67;92.48;99280.63;5116037;28;20051;-61
2023/12/13 07:36:06;;;;;;;17.80;3.70;;;;;;;10.62;92.85;99284.41;5116417;28;20035;-59
2023/12/13 07:38:33;;;;;;;19.38;3.72;;;;;;;10.49;92.90;99291.09;5114445;28;20047;-60
2023/12/13 07:41:01;;;;;;;21.98;2.95;;;;;;;10.49;93.98;99293.03;5095601;28;20553;-61
2023/12/13 07:43:28;;;;;;;17.75;2.95;;;;;;;10.49;92.94;99296.63;5095600;28;20123;-59
2023/12/13 07:45:56;;;;;;;20.83;2.80;;;;;;;10.51;93.32;99294.31;5095424;28;20776;-60
2023/12/13 07:48:23;;;;;;;19.48;2.65;;;;;;;10.45;93.24;99294.88;5088857;28;20058;-61
2023/12/13 07:50:58;;;;;;;23.33;3.40;;;;;;;10.49;93.18;99304.88;5103789;28;20051;-58
2023/12/13 07:53:27;;;;;;;15.82;2.90;;;;;;;10.62;93.44;99300.94;5109975;28;20513;-59
2023/12/13 07:55:54;;;;;;;17.10;3.53;;;;;;;10.62;92.88;99311.94;5097862;28;20059;-61
2023/12/13 07:58:21;;;;;;;26.75;4.00;;;;;;;10.66;92.44;99307.34;5115303;28;20505;-61
2023/12/13 08:00:49;;;;;;;18.92;3.47;;;;;;;10.57;91.79;99308.63;5093875;28;20060;-61
2023/12/13 08:03:16;;;;;;;20.55;3.28;;;;;;;10.62;92.68;99319.38;5096546;28;20043;-62
2023/12/13 08:05:43;;;;;;;11.75;3.13;;;;;;;10.60;91.77;99313.47;5099035;28;20055;-59
2023/12/13 08:08:11;;;;;;;16.73;3.05;;;;;;;10.51;92.33;99324.59;5048083;28;20044;-60
2023/12/13 08:10:40;;;;;;;12.57;2.80;;;;;;;10.52;92.58;99323.44;5076249;28;20047;-60
2023/12/13 08:13:08;;;;;;;15.75;2.78;;;;;;;10.73;91.55;99328.78;5082339;28;20430;-63
2023/12/13 08:15:35;;;;;;;16.50;2.50;;;;;;;10.80;90.84;99329.81;5093044;28;20059;-59
2023/12/13 08:18:03;;;;;;;15.57;3.22;;;;;;;10.81;90.52;99320.38;5080195;28;20371;-61
2023/12/13 08:20:30;;;;;;;17.90;2.95;;;;;;;10.88;89.70;99328.06;5105819;28;20044;-59
2023/12/13 08:22:57;;;;;;;20.00;4.63;;;;;;;10.82;89.70;99337.72;5094378;28;20052;-59
2023/12/13 08:25:25;;;;;;;19.55;5.32;;;;;;;10.91;89.67;99343.91;5093795;28;20052;-61
2023/12/13 08:27:52;;;;;;;18.52;3.03;;;;;;;10.63;90.16;99343.84;5095843;28;20052;-60
2023/12/13 08:30:21;;;;;;;14.93;2.55;;;;;;;10.70;90.37;99341.31;5114347;28;20063;-60
2023/12/13 08:32:48;;;;;;;15.57;2.92;;;;;;;10.81;89.27;99339.66;5078979;28;20071;-59
2023/12/13 08:35:16;;;;;;;13.32;2.70;;;;;;;10.63;90.44;99343.84;5114076;28;20047;-61
2023/12/13 08:37:44;;;;;;;15.55;2.70;;;;;;;11.01;89.24;99349.72;5109936;28;20047;-61
2023/12/13 08:40:11;;;;;;;14.05;2.60;;;;;;;10.84;88.72;99358.28;5091429;28;20066;-62
2023/12/13 08:42:38;;;;;;;17.88;2.88;;;;;;;10.76;89.87;99352.88;5109047;28;20421;-59
2023/12/13 08:45:12;;;;;;;16.35;2.60;;;;;;;10.94;89.42;99349.50;5097176;28;20048;-57
2023/12/13 08:47:39;;;;;;;14.05;3.15;;;;;;;11.12;88.13;99350.03;5096574;28;20048;-60
2023/12/13 08:50:07;;;;;;;12.65;2.40;;;;;;;11.16;87.08;99354.47;5093724;28;20058;-60
2023/12/13 08:52:35;;;;;;;13.68;2.30;;;;;;;11.01;86.84;99348.91;5088601;28;20048;-61
2023/12/13 08:55:02;;;;;;;15.40;2.13;;;;;;;10.85;88.22;99350.78;5113085;28;20055;-61
2023/12/13 08:57:29;;;;;;;14.23;2.35;;;;;;;11.06;88.22;99349.47;5113778;28;20063;-61
2023/12/13 08:59:57;;;;;;;11.93;2.13;;;;;;;11.16;86.59;99350.91;5095876;28;20052;-60
2023/12/13 09:02:36;;;;;;;19.48;2.35;;;;;;;11.15;87.15;99357.59;5095563;28;20043;-60
2023/12/13 09:05:04;;;;;;;11.30;2.03;;;;;;;11.21;86.84;99361.69;5113301;28;20427;-61
2023/12/13 09:07:31;;;;;;;14.00;2.92;;;;;;;11.26;85.37;99362.25;5104856;28;20056;-61
2023/12/13 09:10:00;;;;;;;12.85;2.42;;;;;;;11.23;85.52;99360.19;5074654;28;20059;-61
2023/12/13 09:12:27;;;;;;;12.25;2.20;;;;;;;11.09;86.31;99362.53;5058999;28;20056;-62
2023/12/13 09:14:55;;;;;;;15.23;2.40;;;;;;;10.99;86.67;99363.03;5113023;28;20040;-61
2023/12/13 09:17:22;;;;;;;9.50;1.88;;;;;;;11.04;86.40;99373.00;5095028;28;20126;-61
2023/12/13 09:19:51;;;;;;;11.35;2.53;;;;;;;10.97;87.01;99373.59;5113112;28;20043;-61
2023/12/13 09:22:18;;;;;;;11.38;2.20;;;;;;;11.09;85.87;99372.75;5113729;28;20098;-63
2023/12/13 09:24:45;;;;;;;8.98;1.85;;;;;;;11.15;86.31;99374.13;5093279;28;20079;-61
2023/12/13 09:27:13;;;;;;;10.90;2.65;;;;;;;10.95;86.51;99370.38;5090694;28;20529;-60
2023/12/13 09:29:40;;;;;;;12.18;2.50;;;;;;;11.01;86.63;99374.53;5078520;28;20059;-62
2023/12/13 09:32:08;;;;;;;9.23;1.52;;;;;;;11.02;87.17;99369.78;5092258;28;20040;-60
2023/12/13 09:34:35;;;;;;;8.52;2.28;;;;;;;10.98;86.64;99372.44;5099944;28;20062;-61
2023/12/13 09:37:02;;;;;;;10.32;2.22;;;;;;;11.30;86.54;99376.13;5113357;28;20043;-61
2023/12/13 09:39:30;;;;;;;12.77;2.13;;;;;;;10.96;86.11;99379.47;5095145;28;20070;-61
2023/12/13 09:42:02;;;;;;;10.88;2.05;;;;;;;10.86;88.02;99380.72;5094698;28;20048;-61
2023/12/13 09:44:31;;;;;;;11.63;1.90;;;;;;;10.98;87.20;99379.94;5094695;28;20504;-60
2023/12/13 09:47:01;;;;;;;10.80;2.60;;;;;;;11.18;87.02;99378.94;5078200;28;20426;-61
2023/12/13 09:49:29;;;;;;;10.90;2.15;;;;;;;11.25;86.38;99382.69;5113295;28;20051;-61
2023/12/13 09:52:09;;;;;;;12.60;2.20;;;;;;;11.40;85.96;99392.19;5113145;28;20051;-62
2023/12/13 09:54:38;;;;;;;10.57;1.92;;;;;;;11.11;87.08;99401.56;5112906;28;20054;-60
2023/12/13 09:57:06;;;;;;;10.98;2.92;;;;;;;11.13;87.37;99399.28;5112860;28;20056;-62
2023/12/13 09:59:35;;;;;;;13.32;2.30;;;;;;;11.35;87.82;99404.25;5111882;28;20059;-61
2023/12/13 10:02:03;;;;;;;15.43;2.20;;;;;;;11.22;86.39;99397.19;5094536;28;20050;-62
2023/12/13 10:04:31;;;;;;;7.22;1.98;;;;;;;11.26;87.86;99400.84;5112945;28;20130;-60
2023/12/13 10:06:58;;;;;;;7.18;1.90;;;;;;;11.26;87.01;99409.09;5109587;28;20035;-60
2023/12/13 10:09:27;;;;;;;11.35;2.55;;;;;;;11.45;87.14;99407.66;5113014;28;20039;-61
2023/12/13 10:11:55;;;;;;;13.93;2.00;;;;;;;11.51;86.78;99409.81;5094774;28;20052;-62
2023/12/13 10:14:22;;;;;;;7.70;2.10;;;;;;;11.07;88.21;99413.66;5078249;28;20052;-61
2023/12/13 10:16:52;;;;;;;11.57;2.58;;;;;;;11.29;88.71;99413.13;5113140;28;20055;-60
2023/12/13 10:19:35;;;;;;;11.00;1.92;;;;;;;11.42;87.54;99411.13;5112803;28;20044;-59
2023/12/13 10:22:05;;;;;;;13.60;2.58;;;;;;;11.23;87.94;99412.56;5113099;28;20050;-60
2023/12/13 10:24:33;;;;;;;12.45;4.68;;;;;;;11.30;88.24;99420.22;5111830;28;20048;-60
2023/12/13 10:27:01;;;;;;;15.10;2.70;;;;;;;11.30;87.58;99420.22;5095058;28;20043;-60
2023/12/13 10:29:30;;;;;;;11.50;2.25;;;;;;;11.73;86.88;99422.28;5094870;28;20055;-62
2023/12/13 10:32:03;;;;;;;9.98;1.88;;;;;;;11.77;85.60;99425.94;5113080;28;20450;-63
2023/12/13 10:34:33;;;;;;;11.93;2.42;;;;;;;11.62;84.55;99426.66;5095184;28;20051;-61
2023/12/13 10:37:00;;;;;;;7.88;2.03;;;;;;;11.71;85.03;99433.69;5112321;28;20054;-61
2023/12/13 10:39:28;;;;;;;10.25;2.33;;;;;;;11.73;84.66;99423.09;5112659;28;20708;-61
2023/12/13 10:41:56;;;;;;;10.05;2.45;;;;;;;12.06;83.47;99431.06;5112568;28;20046;-60
2023/12/13 10:44:26;;;;;;;12.25;2.50;;;;;;;11.61;83.91;99436.09;5094169;28;20051;-59
2023/12/13 10:46:58;;;;;;;;;;;;;;;11.31;85.45;99444.69;5064968;28;20593;-61
2023/12/13 10:49:26;;;;;;;9.48;2.47;;;;;;;11.10;87.27;99432.25;5116469;28;19920;-60
2023/12/13 10:51:53;;;;;;;7.97;2.42;;;;;;;11.44;87.16;99439.16;5098142;28;20048;-64
2023/12/13 10:54:21;;;;;;;10.25;2.30;;;;;;;11.42;86.44;99445.00;5080697;28;20051;-61
2023/12/13 10:56:48;;;;;;;12.90;2.78;;;;;;;11.78;85.44;99436.63;5116210;28;20056;-60
2023/12/13 10:59:16;;;;;;;12.02;2.67;;;;;;;11.72;84.65;99440.78;5116495;28;20051;-60
2023/12/13 11:01:45;;;;;;;11.20;2.72;;;;;;;11.57;84.70;99443.47;5116016;28;20524;-61
2023/12/13 11:04:13;;;;;;;9.27;2.13;;;;;;;11.66;85.30;99447.72;5098209;28;20055;-61
2023/12/13 11:06:45;;;;;;;8.93;2.70;;;;;;;11.71;84.52;99447.47;5074814;28;20078;-61
2023/12/13 11:09:14;;;;;;;16.60;6.85;;;;;;;11.94;84.27;99453.22;5093827;28;20052;-61
2023/12/13 11:11:45;;;;;;;13.90;5.18;;;;;;;11.78;83.63;99449.63;5095263;28;20067;-61
2023/12/13 11:14:15;;;;;;;;;;;;;;;11.83;83.20;99443.84;5111384;28;20147;-60
2023/12/13 11:16:48;;;;;;;17.08;4.47;;;;;;;11.69;83.86;99460.00;5097337;28;20373;-61
2023/12/13 11:22:34;;;;;;;9.50;2.70;;;;;;;11.25;86.33;99451.59;5087759;28;20048;-59
2023/12/13 11:25:06;;;;;;;13.68;2.85;;;;;;;11.37;87.10;99452.75;5115810;28;20402;-60
2023/12/13 11:27:33;;;;;;;7.68;2.67;;;;;;;11.72;85.75;99453.75;5115719;28;20059;-60
2023/12/13 11:30:13;;;;;;;13.98;4.82;;;;;;;11.75;84.27;99459.38;5115834;28;20047;-61
2023/12/13 11:32:47;;;;;;;;;;;;;;;11.75;84.72;99458.59;5081095;28;20031;-61
2023/12/13 11:35:19;;;;;;;10.40;4.18;;;;;;;11.89;83.90;99453.47;5097750;28;19920;-62